Time;durP1;ratioP1;P1;durP2;ratioP2;P2;SDS_P1;SDS_P2;PMS_P1;PMS_P2;Temp;Humidity;BMP_temperature;BMP_pressure;BME280_temperature;BME280_humidity;BME280_pressure;Samples;Min_cycle;Max_cycle;Signal;HPM_P1;HPM_P2
2020/12/02 00:01:30;;;;;;;17.17;10.65;;;;;;;;;;5053948;28;20204;-57
2020/12/02 00:03:59;;;;;;;17.75;11.77;;;;;;;;;;5054323;28;20209;-52
2020/12/02 00:06:27;;;;;;;19.80;12.48;;;;;;;;;;5054166;28;20425;-51
2020/12/02 00:08:57;;;;;;;18.90;12.77;;;;;;;;;;5055142;28;20190;-52
2020/12/02 00:11:25;;;;;;;21.23;12.02;;;;;;;;;;5054765;28;20218;-49
2020/12/02 00:14:06;;;;;;;15.65;12.00;;;;;;;;;;5054893;28;20297;-55
2020/12/02 00:16:33;;;;;;;20.95;11.65;;;;;;;;;;5054183;28;20209;-50
2020/12/02 00:19:01;;;;;;;16.67;11.38;;;;;;;;;;5054723;28;20218;-53
2020/12/02 00:21:34;;;;;;;21.27;11.60;;;;;;;;;;5054566;28;20202;-54
2020/12/02 00:24:00;;;;;;;15.73;11.00;;;;;;;;;;5054928;28;20206;-54
2020/12/02 00:26:28;;;;;;;18.70;12.18;;;;;;;;;;5054696;28;20268;-53
2020/12/02 00:31:59;;;;;;;15.85;11.77;;;;;;;;;;5054657;28;20262;-47
2020/12/02 00:34:27;;;;;;;16.85;12.10;;;;;;;;;;5054493;28;20197;-54
2020/12/02 00:36:54;;;;;;;21.60;12.07;;;;;;;;;;5053500;28;20230;-53
2020/12/02 00:39:21;;;;;;;18.08;11.05;;;;;;;;;;5054255;28;20214;-56
2020/12/02 00:41:48;;;;;;;22.33;12.88;;;;;;;;;;5054831;28;20255;-58
2020/12/02 00:44:17;;;;;;;18.58;12.55;;;;;;;;;;5054285;28;20201;-53
2020/12/02 00:46:46;;;;;;;17.70;11.68;;;;;;;;;;5054803;28;20242;-56
2020/12/02 00:49:14;;;;;;;17.27;11.00;;;;;;;;;;5054148;28;20228;-53
2020/12/02 00:51:49;;;;;;;17.85;11.30;;;;;;;;;;5054475;28;20198;-56
2020/12/02 00:54:15;;;;;;;17.45;11.27;;;;;;;;;;5054521;28;20210;-52
2020/12/02 00:56:45;;;;;;;17.45;11.43;;;;;;;;;;5054656;28;20225;-53
2020/12/02 00:59:21;;;;;;;20.98;11.93;;;;;;;;;;5054053;28;20199;-48
2020/12/02 01:01:52;;;;;;;17.55;11.90;;;;;;;;;;5054507;28;20263;-54
2020/12/02 01:04:20;;;;;;;17.52;11.65;;;;;;;;;;5053911;28;20206;-56
2020/12/02 01:09:52;;;;;;;17.58;11.57;;;;;;;;;;5053057;28;20170;-54
2020/12/02 01:12:19;;;;;;;14.60;10.45;;;;;;;;;;5053916;28;20249;-51
2020/12/02 01:14:46;;;;;;;18.13;11.95;;;;;;;;;;5054710;28;20198;-55
2020/12/02 01:17:19;;;;;;;15.73;10.45;;;;;;;;;;5054277;28;20194;-47
2020/12/02 01:19:46;;;;;;;16.50;11.23;;;;;;;;;;5053408;28;20234;-50
2020/12/02 01:22:15;;;;;;;17.77;11.48;;;;;;;;;;5053597;28;20218;-52
2020/12/02 01:24:59;;;;;;;20.40;12.57;;;;;;;;;;5054016;28;20230;-55
2020/12/02 01:27:30;;;;;;;16.73;11.45;;;;;;;;;;5054674;28;20220;-56
2020/12/02 01:29:57;;;;;;;21.52;11.90;;;;;;;;;;5058501;28;20219;-53
2020/12/02 01:32:30;;;;;;;16.20;11.98;;;;;;;;;;5057107;28;20269;-57
2020/12/02 01:34:56;;;;;;;20.38;12.32;;;;;;;;;;5058059;28;20198;-55
2020/12/02 01:37:26;;;;;;;16.35;10.65;;;;;;;;;;5058110;28;20233;-57
2020/12/02 01:40:01;;;;;;;20.10;11.35;;;;;;;;;;5057957;28;20206;-54
2020/12/02 01:42:28;;;;;;;18.63;11.93;;;;;;;;;;5057667;28;20217;-52
2020/12/02 01:44:56;;;;;;;19.50;10.95;;;;;;;;;;5057974;28;20209;-49
2020/12/02 01:47:27;;;;;;;17.48;11.50;;;;;;;;;;5057339;28;20284;-57
2020/12/02 01:50:00;;;;;;;19.15;11.40;;;;;;;;;;5057851;28;20220;-54
2020/12/02 01:52:48;;;;;;;17.55;11.10;;;;;;;;;;5057017;28;20214;-56
2020/12/02 01:55:18;;;;;;;21.50;11.73;;;;;;;;;;5056923;28;20211;-54
2020/12/02 01:57:47;;;;;;;19.98;11.90;;;;;;;;;;5057624;28;20206;-55
2020/12/02 02:00:17;;;;;;;18.52;11.43;;;;;;;;;;5039447;28;20182;-55
2020/12/02 02:02:46;;;;;;;23.80;12.23;;;;;;;;;;5056768;28;20226;-55
2020/12/02 02:05:15;;;;;;;19.63;10.77;;;;;;;;;;5057092;28;20213;-54
2020/12/02 02:08:20;;;;;;;17.33;10.45;;;;;;;;;;5057532;28;20238;-52
2020/12/02 02:10:49;;;;;;;16.27;10.68;;;;;;;;;;5054752;28;20234;-52
2020/12/02 02:13:31;;;;;;;16.15;9.93;;;;;;;;;;5055977;28;20220;-56
2020/12/02 02:16:01;;;;;;;20.23;12.40;;;;;;;;;;5057006;28;20197;-51
2020/12/02 02:18:40;;;;;;;17.85;10.75;;;;;;;;;;5057541;28;20234;-51
2020/12/02 02:21:08;;;;;;;16.60;11.80;;;;;;;;;;5056814;28;20219;-52
2020/12/02 02:23:47;;;;;;;20.55;11.80;;;;;;;;;;5056868;28;20214;-51
2020/12/02 02:26:22;;;;;;;13.88;10.60;;;;;;;;;;5056792;28;20217;-54
2020/12/02 02:28:51;;;;;;;21.15;11.10;;;;;;;;;;5056794;28;20240;-52
2020/12/02 02:31:19;;;;;;;16.27;11.38;;;;;;;;;;5055961;28;20223;-53
2020/12/02 02:33:46;;;;;;;16.33;10.77;;;;;;;;;;5056910;28;20211;-50
2020/12/02 02:36:13;;;;;;;17.30;11.40;;;;;;;;;;5056660;28;20236;-49
2020/12/02 02:38:40;;;;;;;16.10;9.95;;;;;;;;;;5056589;28;20183;-54
2020/12/02 02:41:12;;;;;;;19.40;10.13;;;;;;;;;;5056631;28;20239;-51
2020/12/02 02:43:40;;;;;;;16.63;10.02;;;;;;;;;;5056828;28;20241;-54
2020/12/02 02:46:07;;;;;;;18.00;11.10;;;;;;;;;;5056723;28;20239;-54
2020/12/02 02:48:35;;;;;;;16.55;10.65;;;;;;;;;;5057064;28;20241;-53
2020/12/02 02:51:02;;;;;;;17.95;9.82;;;;;;;;;;5056706;28;20214;-54
2020/12/02 02:53:29;;;;;;;13.63;9.43;;;;;;;;;;5056078;28;20201;-54
2020/12/02 02:56:01;;;;;;;13.75;9.30;;;;;;;;;;5056093;28;20211;-51
2020/12/02 02:58:29;;;;;;;18.33;10.13;;;;;;;;;;5056243;28;20214;-52
2020/12/02 03:00:58;;;;;;;14.68;8.90;;;;;;;;;;5055878;28;20242;-52
2020/12/02 03:03:34;;;;;;;13.95;9.50;;;;;;;;;;5056184;28;20286;-55
2020/12/02 03:06:01;;;;;;;13.55;9.43;;;;;;;;;;5056263;28;20219;-57
2020/12/02 03:08:28;;;;;;;13.55;9.10;;;;;;;;;;5038790;28;20213;-50
2020/12/02 03:11:07;;;;;;;15.32;8.95;;;;;;;;;;5056278;28;20247;-53
2020/12/02 03:13:37;;;;;;;11.18;8.07;;;;;;;;;;5055685;28;20210;-51
2020/12/02 03:16:08;;;;;;;14.38;8.73;;;;;;;;;;5055356;28;20240;-51
2020/12/02 03:18:35;;;;;;;14.43;8.70;;;;;;;;;;5056344;28;20201;-52
2020/12/02 03:21:05;;;;;;;14.23;9.05;;;;;;;;;;5055755;28;20202;-51
2020/12/02 03:23:52;;;;;;;14.02;9.00;;;;;;;;;;5055838;28;20245;-53
2020/12/02 03:26:21;;;;;;;15.55;8.60;;;;;;;;;;5055364;28;20220;-57
2020/12/02 03:28:47;;;;;;;11.65;8.30;;;;;;;;;;5055427;28;20232;-54
2020/12/02 03:31:23;;;;;;;12.85;8.38;;;;;;;;;;5055758;28;20221;-48
2020/12/02 03:33:50;;;;;;;12.80;8.23;;;;;;;;;;5055726;28;20212;-54
2020/12/02 03:36:18;;;;;;;15.98;8.35;;;;;;;;;;5038878;28;20210;-51
2020/12/02 03:38:56;;;;;;;12.23;8.40;;;;;;;;;;5055609;28;20211;-54
2020/12/02 03:41:23;;;;;;;12.18;7.95;;;;;;;;;;5055368;28;20382;-54
2020/12/02 03:43:50;;;;;;;13.90;8.32;;;;;;;;;;5055447;28;20198;-51
2020/12/02 03:46:31;;;;;;;11.25;7.63;;;;;;;;;;5054583;28;20198;-56
2020/12/02 03:48:58;;;;;;;12.02;8.02;;;;;;;;;;5055379;28;20210;-50
2020/12/02 03:51:26;;;;;;;12.57;8.13;;;;;;;;;;5054794;28;20236;-51
2020/12/02 03:53:57;;;;;;;12.75;8.65;;;;;;;;;;5055666;28;20238;-55
2020/12/02 03:56:24;;;;;;;11.65;7.93;;;;;;;;;;5055348;28;20197;-56
2020/12/02 03:58:50;;;;;;;11.95;7.97;;;;;;;;;;5055259;28;20270;-55
2020/12/02 04:01:19;;;;;;;13.10;7.40;;;;;;;;;;5055168;28;20238;-49
2020/12/02 04:03:47;;;;;;;13.27;8.40;;;;;;;;;;5055113;28;20205;-51
2020/12/02 04:06:14;;;;;;;12.93;7.45;;;;;;;;;;5054821;28;20223;-55
2020/12/02 04:08:51;;;;;;;12.02;7.75;;;;;;;;;;5055076;28;20183;-58
2020/12/02 04:11:18;;;;;;;13.75;7.75;;;;;;;;;;5035453;28;20287;-57
2020/12/02 04:13:45;;;;;;;11.32;7.75;;;;;;;;;;5036080;28;20209;-50
2020/12/02 04:16:12;;;;;;;11.88;8.05;;;;;;;;;;5035057;28;20191;-55
2020/12/02 04:18:39;;;;;;;14.65;7.43;;;;;;;;;;5034853;28;20238;-51
2020/12/02 04:21:07;;;;;;;13.15;7.72;;;;;;;;;;5034988;28;20278;-55
2020/12/02 04:23:36;;;;;;;11.93;7.10;;;;;;;;;;5034858;28;20221;-56
2020/12/02 04:26:06;;;;;;;11.52;8.10;;;;;;;;;;5035013;28;20217;-52
2020/12/02 04:28:32;;;;;;;8.50;6.18;;;;;;;;;;5035094;28;20255;-53
2020/12/02 04:31:02;;;;;;;11.13;8.20;;;;;;;;;;5034766;28;20207;-59
2020/12/02 04:33:29;;;;;;;14.77;8.63;;;;;;;;;;5034714;28;20225;-55
2020/12/02 04:35:56;;;;;;;9.55;7.10;;;;;;;;;;5035001;28;20228;-57
2020/12/02 04:38:41;;;;;;;15.27;9.23;;;;;;;;;;5035253;28;20200;-53
2020/12/02 04:41:11;;;;;;;10.10;7.97;;;;;;;;;;5034347;28;20198;-54
2020/12/02 04:43:39;;;;;;;12.77;8.35;;;;;;;;;;5034862;28;20217;-53
2020/12/02 04:46:15;;;;;;;12.18;8.05;;;;;;;;;;5034508;28;20215;-56
2020/12/02 04:48:43;;;;;;;11.98;8.10;;;;;;;;;;5034994;28;20202;-56
2020/12/02 04:51:13;;;;;;;10.65;7.68;;;;;;;;;;5034865;28;20215;-55
2020/12/02 04:53:49;;;;;;;11.10;7.28;;;;;;;;;;5035020;28;20199;-54
2020/12/02 04:56:17;;;;;;;11.73;8.27;;;;;;;;;;5034399;28;20215;-57
2020/12/02 04:58:44;;;;;;;11.02;7.65;;;;;;;;;;5034919;28;20203;-53
2020/12/02 05:01:21;;;;;;;12.82;8.85;;;;;;;;;;5035419;28;20211;-52
2020/12/02 05:03:53;;;;;;;11.85;7.90;;;;;;;;;;5038097;28;20234;-60
2020/12/02 05:06:28;;;;;;;10.27;7.53;;;;;;;;;;5038928;28;20199;-48
2020/12/02 05:09:20;;;;;;;9.93;6.65;;;;;;;;;;5029845;28;20220;-58
2020/12/02 05:11:57;;;;;;;15.70;9.60;;;;;;;;;;5038875;28;20209;-56
2020/12/02 05:14:31;;;;;;;10.55;8.65;;;;;;;;;;5038537;28;20218;-49
2020/12/02 05:17:02;;;;;;;13.98;8.32;;;;;;;;;;5021351;28;20646;-59
2020/12/02 05:19:29;;;;;;;12.60;8.75;;;;;;;;;;5043683;28;20222;-57
2020/12/02 05:22:14;;;;;;;10.18;7.43;;;;;;;;;;5057680;28;20269;-53
2020/12/02 05:24:50;;;;;;;12.70;8.13;;;;;;;;;;5057525;28;20242;-54
2020/12/02 05:27:20;;;;;;;10.20;7.65;;;;;;;;;;5057260;28;20264;-53
2020/12/02 05:30:11;;;;;;;11.13;7.60;;;;;;;;;;5054733;28;20236;-49
2020/12/02 05:32:39;;;;;;;9.73;7.65;;;;;;;;;;5055746;28;20205;-59
2020/12/02 05:35:14;;;;;;;13.13;8.02;;;;;;;;;;5054470;28;20273;-55
2020/12/02 05:37:57;;;;;;;12.98;7.57;;;;;;;;;;5050729;28;20202;-51
2020/12/02 05:40:24;;;;;;;11.38;7.75;;;;;;;;;;5055636;28;20205;-54
2020/12/02 05:42:59;;;;;;;17.73;8.10;;;;;;;;;;5053737;28;20234;-57
2020/12/02 05:45:30;;;;;;;10.75;8.05;;;;;;;;;;5058012;28;20217;-50
2020/12/02 05:47:57;;;;;;;13.07;8.00;;;;;;;;;;5055131;28;20206;-58
2020/12/02 05:50:40;;;;;;;14.48;8.68;;;;;;;;;;5056903;28;20197;-56
2020/12/02 05:53:14;;;;;;;11.98;8.23;;;;;;;;;;5056321;28;20198;-61
2020/12/02 05:55:41;;;;;;;15.70;8.57;;;;;;;;;;5054364;28;20228;-59
2020/12/02 05:58:25;;;;;;;14.27;8.93;;;;;;;;;;5056700;28;20211;-55
2020/12/02 06:00:53;;;;;;;11.15;8.20;;;;;;;;;;5051961;28;20222;-57
2020/12/02 06:03:22;;;;;;;12.95;8.60;;;;;;;;;;5056519;28;20241;-52
2020/12/02 06:05:59;;;;;;;13.30;7.82;;;;;;;;;;5056657;28;20206;-56
2020/12/02 06:08:34;;;;;;;11.02;7.70;;;;;;;;;;5054353;28;20236;-57
2020/12/02 06:11:16;;;;;;;15.70;8.82;;;;;;;;;;5037008;28;20210;-52
2020/12/02 06:13:44;;;;;;;10.10;6.53;;;;;;;;;;5043584;28;20241;-53
2020/12/02 06:16:12;;;;;;;13.73;8.15;;;;;;;;;;5055702;28;20198;-50
2020/12/02 06:19:12;;;;;;;12.70;7.90;;;;;;;;;;5056316;28;20363;-54
2020/12/02 06:21:43;;;;;;;12.48;7.93;;;;;;;;;;5035461;28;20217;-52
2020/12/02 06:24:14;;;;;;;13.82;9.25;;;;;;;;;;5035464;28;20222;-53
2020/12/02 06:26:44;;;;;;;13.30;8.25;;;;;;;;;;5036530;28;20242;-54
2020/12/02 06:29:32;;;;;;;12.30;8.20;;;;;;;;;;5043624;28;20262;-54
2020/12/02 06:32:32;;;;;;;12.05;7.78;;;;;;;;;;5043543;28;20207;-58
2020/12/02 06:35:21;;;;;;;10.13;6.80;;;;;;;;;;5054474;28;20220;-56
2020/12/02 06:38:15;;;;;;;11.65;8.57;;;;;;;;;;5054883;28;20198;-49
2020/12/02 06:40:52;;;;;;;12.73;7.63;;;;;;;;;;5044709;28;20195;-56
2020/12/02 06:43:24;;;;;;;12.20;8.32;;;;;;;;;;5041688;28;20194;-59
2020/12/02 06:46:03;;;;;;;12.68;7.70;;;;;;;;;;5055222;28;20191;-56
2020/12/02 06:48:34;;;;;;;11.18;7.38;;;;;;;;;;5042252;28;20619;-50
2020/12/02 06:51:02;;;;;;;10.63;7.70;;;;;;;;;;5042484;28;20227;-53
2020/12/02 06:53:48;;;;;;;10.63;8.10;;;;;;;;;;5035447;28;20213;-53
2020/12/02 06:56:17;;;;;;;10.57;7.18;;;;;;;;;;5047410;28;20309;-51
2020/12/02 06:58:44;;;;;;;10.52;8.40;;;;;;;;;;5054435;28;20198;-51
2020/12/02 07:01:17;;;;;;;10.52;7.15;;;;;;;;;;5054834;28;20228;-60
2020/12/02 07:03:45;;;;;;;12.20;6.95;;;;;;;;;;5054010;28;20275;-56
2020/12/02 07:06:44;;;;;;;11.55;6.93;;;;;;;;;;5055545;28;20219;-51
2020/12/02 07:09:16;;;;;;;10.85;8.35;;;;;;;;;;5033528;28;20199;-52
2020/12/02 07:12:03;;;;;;;11.50;7.75;;;;;;;;;;5033839;28;20233;-57
2020/12/02 07:14:38;;;;;;;15.38;8.20;;;;;;;;;;5051320;28;20203;-58
2020/12/02 07:17:09;;;;;;;13.30;7.72;;;;;;;;;;5035258;28;20202;-51
2020/12/02 07:19:37;;;;;;;15.75;9.48;;;;;;;;;;5053279;28;20293;-56
2020/12/02 07:22:18;;;;;;;14.10;7.75;;;;;;;;;;5051028;28;20229;-60
2020/12/02 07:24:52;;;;;;;10.52;7.90;;;;;;;;;;5054099;28;20210;-55
2020/12/02 07:27:23;;;;;;;12.65;8.63;;;;;;;;;;5050266;28;20243;-59
2020/12/02 07:29:56;;;;;;;12.20;8.50;;;;;;;;;;5036365;28;20198;-53
2020/12/02 07:32:35;;;;;;;12.80;8.57;;;;;;;;;;5053745;28;20201;-53
2020/12/02 07:35:05;;;;;;;12.90;8.40;;;;;;;;;;5037150;28;20206;-59
2020/12/02 07:37:35;;;;;;;14.98;9.10;;;;;;;;;;5032332;28;20254;-52
2020/12/02 07:40:36;;;;;;;10.82;8.02;;;;;;;;;;5053303;28;20261;-52
2020/12/02 07:43:04;;;;;;;15.55;10.02;;;;;;;;;;4993586;28;20208;-59
2020/12/02 07:45:49;;;;;;;12.70;7.90;;;;;;;;;;5036413;28;20214;-55
2020/12/02 07:48:23;;;;;;;11.88;8.18;;;;;;;;;;5055229;28;20249;-56
2020/12/02 07:51:01;;;;;;;11.32;8.18;;;;;;;;;;5055395;28;20281;-55
2020/12/02 07:53:36;;;;;;;11.52;8.02;;;;;;;;;;5055038;28;20254;-57
2020/12/02 07:56:05;;;;;;;12.07;8.60;;;;;;;;;;5054690;28;20202;-53
2020/12/02 07:58:40;;;;;;;12.35;8.68;;;;;;;;;;5054918;28;20202;-50
2020/12/02 08:01:08;;;;;;;14.20;9.93;;;;;;;;;;5053657;28;20252;-54
2020/12/02 08:03:38;;;;;;;12.85;8.80;;;;;;;;;;5054266;28;20201;-52
2020/12/02 08:06:15;;;;;;;11.27;8.18;;;;;;;;;;5054675;28;20277;-55
2020/12/02 08:08:41;;;;;;;12.73;9.30;;;;;;;;;;5053878;28;20232;-52
2020/12/02 08:11:11;;;;;;;10.68;8.05;;;;;;;;;;5054825;28;20209;-54
2020/12/02 08:13:46;;;;;;;17.77;9.63;;;;;;;;;;5054269;28;20400;-55
2020/12/02 08:16:22;;;;;;;11.25;7.50;;;;;;;;;;5054226;28;20236;-54
2020/12/02 08:19:05;;;;;;;11.95;9.07;;;;;;;;;;5054420;28;20239;-53
2020/12/02 08:21:39;;;;;;;11.60;9.25;;;;;;;;;;5054600;28;20240;-55
2020/12/02 08:24:18;;;;;;;12.95;9.50;;;;;;;;;;5054808;28;20206;-57
2020/12/02 08:26:54;;;;;;;13.30;9.65;;;;;;;;;;5054563;28;20236;-53
2020/12/02 08:29:27;;;;;;;15.60;8.77;;;;;;;;;;5054343;28;20206;-57
2020/12/02 08:32:00;;;;;;;16.00;9.23;;;;;;;;;;5054411;28;20210;-57
2020/12/02 08:40:23;;;;;;;12.43;8.77;;;;;;;;;;5051543;28;20236;-55
2020/12/02 08:42:50;;;;;;;11.73;8.68;;;;;;;;;;5049342;28;20260;-57
2020/12/02 08:45:25;;;;;;;15.55;11.07;;;;;;;;;;5029919;28;20231;-56
2020/12/02 08:47:53;;;;;;;11.57;8.48;;;;;;;;;;5054691;28;20244;-55
2020/12/02 08:50:37;;;;;;;13.23;9.50;;;;;;;;;;5048860;28;20206;-51
2020/12/02 08:53:04;;;;;;;13.25;9.50;;;;;;;;;;5058320;28;20202;-53
2020/12/02 08:55:31;;;;;;;15.63;11.52;;;;;;;;;;5057920;28;20210;-57
2020/12/02 08:58:06;;;;;;;16.40;10.13;;;;;;;;;;5057457;28;20232;-53
2020/12/02 09:00:33;;;;;;;16.50;9.35;;;;;;;;;;5057471;28;20210;-54
2020/12/02 09:03:00;;;;;;;12.52;8.93;;;;;;;;;;5050549;28;20214;-53
2020/12/02 09:05:45;;;;;;;14.70;9.20;;;;;;;;;;5057457;28;20191;-57
2020/12/02 09:08:12;;;;;;;12.98;8.60;;;;;;;;;;5057467;28;20272;-50
2020/12/02 09:10:39;;;;;;;11.00;8.13;;;;;;;;;;5057657;28;20248;-57
2020/12/02 09:13:10;;;;;;;11.15;8.68;;;;;;;;;;5057656;28;20233;-60
2020/12/02 09:15:37;;;;;;;11.98;9.73;;;;;;;;;;5056687;28;20210;-59
2020/12/02 09:18:05;;;;;;;12.15;8.88;;;;;;;;;;5037945;28;20313;-50
2020/12/02 09:20:37;;;;;;;13.93;10.20;;;;;;;;;;5020711;28;20194;-54
2020/12/02 09:23:07;;;;;;;13.30;7.55;;;;;;;;;;5037215;28;20219;-57
2020/12/02 09:25:34;;;;;;;9.93;7.13;;;;;;;;;;5050311;28;20243;-56
2020/12/02 09:31:06;;;;;;;12.90;9.73;;;;;;;;;;5054838;28;20233;-56
2020/12/02 09:33:33;;;;;;;12.65;8.65;;;;;;;;;;5056594;28;20214;-60
2020/12/02 09:36:32;;;;;;;11.10;8.60;;;;;;;;;;5057050;28;20208;-55
2020/12/02 09:38:59;;;;;;;11.52;8.68;;;;;;;;;;5055671;28;20202;-50
2020/12/02 09:41:33;;;;;;;13.52;9.02;;;;;;;;;;5056543;28;20210;-53
2020/12/02 09:44:20;;;;;;;11.55;8.75;;;;;;;;;;5057328;28;20191;-56
2020/12/02 09:46:51;;;;;;;11.70;7.20;;;;;;;;;;5056898;28;20242;-56
2020/12/02 09:49:18;;;;;;;12.77;8.57;;;;;;;;;;5055990;28;20199;-61
2020/12/02 09:52:09;;;;;;;9.63;6.60;;;;;;;;;;5057789;28;20194;-55
2020/12/02 09:54:39;;;;;;;9.52;6.75;;;;;;;;;;5057535;28;20196;-54
2020/12/02 09:57:15;;;;;;;9.60;6.95;;;;;;;;;;5057057;28;20269;-57
2020/12/02 10:03:04;;;;;;;11.15;7.80;;;;;;;;;;5054855;28;20302;-52
2020/12/02 10:05:52;;;;;;;12.02;6.18;;;;;;;;;;5056249;28;20222;-50
2020/12/02 10:08:44;;;;;;;7.60;5.35;;;;;;;;;;5049844;28;20259;-53
2020/12/02 10:11:29;;;;;;;8.13;5.65;;;;;;;;;;5056869;28;20209;-55
2020/12/02 10:14:17;;;;;;;11.80;6.28;;;;;;;;;;5041124;28;20195;-54
2020/12/02 10:16:46;;;;;;;14.80;7.90;;;;;;;;;;5056144;28;20638;-56
2020/12/02 10:19:25;;;;;;;8.50;6.35;;;;;;;;;;5049711;28;20208;-56
2020/12/02 10:22:22;;;;;;;8.88;7.05;;;;;;;;;;5036149;28;20185;-54
2020/12/02 10:24:58;;;;;;;10.57;6.93;;;;;;;;;;4989454;28;20223;-56
2020/12/02 10:27:45;;;;;;;8.90;5.95;;;;;;;;;;5028781;28;20217;-51
2020/12/02 10:30:31;;;;;;;8.75;6.90;;;;;;;;;;5052401;28;20189;-45
2020/12/02 10:33:14;;;;;;;10.18;7.30;;;;;;;;;;5056012;28;20237;-53
2020/12/02 10:35:50;;;;;;;8.82;7.10;;;;;;;;;;5054027;28;20196;-54
2020/12/02 10:38:34;;;;;;;8.98;6.25;;;;;;;;;;5041111;28;20220;-56
2020/12/02 10:41:04;;;;;;;9.98;6.90;;;;;;;;;;5042896;28;20481;-53
2020/12/02 10:43:35;;;;;;;8.63;6.93;;;;;;;;;;5036487;28;20273;-54
2020/12/02 10:46:03;;;;;;;10.88;7.47;;;;;;;;;;5035496;28;20225;-52
2020/12/02 10:48:45;;;;;;;9.63;5.95;;;;;;;;;;5035483;28;20213;-56
2020/12/02 10:51:36;;;;;;;11.07;7.80;;;;;;;;;;5034466;28;20214;-56
2020/12/02 10:54:05;;;;;;;11.30;6.22;;;;;;;;;;5044338;28;20248;-57
2020/12/02 10:56:37;;;;;;;6.72;5.03;;;;;;;;;;5055182;28;20210;-57
2020/12/02 10:59:06;;;;;;;10.65;6.18;;;;;;;;;;5052420;28;20202;-53
2020/12/02 11:01:34;;;;;;;8.18;5.93;;;;;;;;;;5034862;28;20209;-58
2020/12/02 11:04:01;;;;;;;7.00;5.80;;;;;;;;;;5034531;28;20180;-55
2020/12/02 11:06:38;;;;;;;7.10;5.43;;;;;;;;;;5035869;28;20294;-56
2020/12/02 11:09:27;;;;;;;10.45;7.28;;;;;;;;;;5035940;28;20239;-56
2020/12/02 11:12:13;;;;;;;7.45;4.15;;;;;;;;;;5044616;28;20209;-48
2020/12/02 11:15:02;;;;;;;4.63;3.30;;;;;;;;;;5013530;28;20201;-54
2020/12/02 11:17:41;;;;;;;9.15;4.57;;;;;;;;;;5015252;28;20220;-55
2020/12/02 11:20:16;;;;;;;7.88;5.22;;;;;;;;;;5025463;28;20273;-57
2020/12/02 11:22:58;;;;;;;8.15;4.68;;;;;;;;;;5028662;28;20202;-53
2020/12/02 11:25:27;;;;;;;7.15;4.40;;;;;;;;;;5015270;28;20242;-60
2020/12/02 11:28:02;;;;;;;6.80;3.90;;;;;;;;;;5024569;28;20268;-59
2020/12/02 11:30:31;;;;;;;4.60;3.88;;;;;;;;;;5034372;28;20240;-58
2020/12/02 11:33:26;;;;;;;6.30;4.47;;;;;;;;;;5034975;28;20237;-58
2020/12/02 11:36:16;;;;;;;6.78;4.57;;;;;;;;;;5034579;28;20210;-59
2020/12/02 11:38:52;;;;;;;6.32;4.35;;;;;;;;;;5014277;28;20195;-59
2020/12/02 11:41:22;;;;;;;7.28;4.93;;;;;;;;;;5015041;28;20364;-54
2020/12/02 11:43:54;;;;;;;6.20;5.05;;;;;;;;;;5014762;28;20223;-56
2020/12/02 11:46:23;;;;;;;7.82;4.78;;;;;;;;;;5014516;28;20217;-53
2020/12/02 11:48:56;;;;;;;15.38;9.55;;;;;;;;;;5014914;28;20239;-56
2020/12/02 11:51:29;;;;;;;6.20;4.88;;;;;;;;;;5015223;28;20270;-52
2020/12/02 11:54:14;;;;;;;9.13;5.72;;;;;;;;;;5031972;28;20231;-56
2020/12/02 11:56:50;;;;;;;9.80;5.55;;;;;;;;;;5034293;28;20278;-54
2020/12/02 12:02:22;;;;;;;7.95;5.35;;;;;;;;;;5028202;28;20208;-53
2020/12/02 12:05:03;;;;;;;7.55;5.80;;;;;;;;;;5019663;28;20206;-50
2020/12/02 12:07:41;;;;;;;6.72;5.78;;;;;;;;;;5015590;28;20230;-52
2020/12/02 12:10:18;;;;;;;10.52;5.47;;;;;;;;;;5034705;28;20196;-59
2020/12/02 12:13:09;;;;;;;8.38;6.25;;;;;;;;;;5031458;28;20189;-57
2020/12/02 12:15:40;;;;;;;8.48;6.30;;;;;;;;;;5032341;28;20236;-54
2020/12/02 12:18:16;;;;;;;7.68;5.85;;;;;;;;;;5029252;28;20787;-54
2020/12/02 12:21:04;;;;;;;9.20;6.30;;;;;;;;;;5018011;28;20234;-53
2020/12/02 12:23:58;;;;;;;7.45;5.45;;;;;;;;;;5039337;28;20267;-49
2020/12/02 12:26:28;;;;;;;9.50;6.82;;;;;;;;;;5041873;28;20249;-57
2020/12/02 12:29:05;;;;;;;10.60;7.55;;;;;;;;;;5044055;28;20216;-56
2020/12/02 12:31:53;;;;;;;7.60;5.20;;;;;;;;;;5054208;28;20407;-57
2020/12/02 12:34:34;;;;;;;9.23;6.78;;;;;;;;;;5043247;28;20264;-48
2020/12/02 12:37:10;;;;;;;7.60;5.55;;;;;;;;;;5033626;28;20242;-54
2020/12/02 12:39:42;;;;;;;11.98;7.55;;;;;;;;;;5048176;28;20215;-58
2020/12/02 12:42:16;;;;;;;10.05;7.43;;;;;;;;;;5034581;28;20503;-56
2020/12/02 12:44:48;;;;;;;9.30;7.10;;;;;;;;;;5033823;28;20357;-58
2020/12/02 12:47:18;;;;;;;9.43;6.88;;;;;;;;;;5037408;28;20242;-51
2020/12/02 12:49:57;;;;;;;8.07;5.95;;;;;;;;;;5034950;28;20201;-51
2020/12/02 12:52:26;;;;;;;8.98;6.72;;;;;;;;;;5032441;28;20239;-53
2020/12/02 12:54:54;;;;;;;8.48;6.22;;;;;;;;;;5034816;28;20224;-51
2020/12/02 12:57:57;;;;;;;10.57;6.82;;;;;;;;;;5034475;28;20248;-57
2020/12/02 13:00:38;;;;;;;8.27;5.88;;;;;;;;;;5032569;28;20229;-57
2020/12/02 13:03:15;;;;;;;8.80;6.00;;;;;;;;;;5054344;28;20222;-59
2020/12/02 13:06:04;;;;;;;9.90;6.82;;;;;;;;;;5053606;28;20393;-55
2020/12/02 13:08:39;;;;;;;8.50;6.60;;;;;;;;;;5066722;28;20227;-53
2020/12/02 13:11:12;;;;;;;6.93;5.88;;;;;;;;;;5073341;28;20422;-56
2020/12/02 13:13:54;;;;;;;10.30;7.70;;;;;;;;;;5073033;28;20220;-53
2020/12/02 13:16:23;;;;;;;7.97;6.53;;;;;;;;;;5071322;28;20243;-53
2020/12/02 13:18:58;;;;;;;10.07;7.00;;;;;;;;;;5073229;28;20199;-52
2020/12/02 13:21:37;;;;;;;10.50;8.25;;;;;;;;;;5073483;28;20265;-52
2020/12/02 13:24:31;;;;;;;10.32;8.20;;;;;;;;;;5075871;28;20222;-57
2020/12/02 13:27:37;;;;;;;12.95;6.75;;;;;;;;;;5059149;28;20216;-60
2020/12/02 13:30:07;;;;;;;7.78;6.18;;;;;;;;;;5057062;28;20195;-58
2020/12/02 13:32:38;;;;;;;8.98;7.07;;;;;;;;;;5056894;28;20256;-51
2020/12/02 13:35:23;;;;;;;8.25;6.45;;;;;;;;;;5057029;28;20213;-54
2020/12/02 13:37:56;;;;;;;10.75;7.57;;;;;;;;;;5074966;28;20225;-58
2020/12/02 13:40:23;;;;;;;10.55;7.50;;;;;;;;;;5076900;28;20268;-55
2020/12/02 13:42:55;;;;;;;11.00;8.02;;;;;;;;;;5073839;28;20326;-55
2020/12/02 13:45:26;;;;;;;9.02;7.30;;;;;;;;;;5069042;28;20231;-47
2020/12/02 13:47:53;;;;;;;10.52;7.50;;;;;;;;;;5077040;28;20217;-52
2020/12/02 13:50:31;;;;;;;9.20;7.10;;;;;;;;;;5076998;28;20216;-52
2020/12/02 13:53:04;;;;;;;15.73;11.95;;;;;;;;;;5062696;28;20249;-57
2020/12/02 13:55:38;;;;;;;36.42;25.30;;;;;;;;;;5076489;28;20219;-55
2020/12/02 13:58:19;;;;;;;49.50;34.78;;;;;;;;;;5078455;28;20201;-61
2020/12/02 14:01:18;;;;;;;23.42;16.58;;;;;;;;;;5060683;28;20193;-55
2020/12/02 14:04:03;;;;;;;13.57;12.10;;;;;;;;;;5057582;28;20239;-54
2020/12/02 14:06:58;;;;;;;11.73;9.02;;;;;;;;;;5072439;28;20269;-58
2020/12/02 14:09:28;;;;;;;14.32;8.55;;;;;;;;;;5058726;28;20302;-56
2020/12/02 14:12:18;;;;;;;13.75;10.05;;;;;;;;;;5076471;28;20218;-60
2020/12/02 14:14:48;;;;;;;10.80;9.05;;;;;;;;;;5058976;28;20210;-56
2020/12/02 14:17:28;;;;;;;10.60;8.38;;;;;;;;;;5060723;28;20196;-56
2020/12/02 14:22:57;;;;;;;10.52;7.82;;;;;;;;;;5074918;28;20205;-58
2020/12/02 14:25:32;;;;;;;12.52;8.90;;;;;;;;;;5076084;28;20208;-57
2020/12/02 14:28:03;;;;;;;10.05;7.88;;;;;;;;;;5075776;28;20220;-56
2020/12/02 14:30:37;;;;;;;11.52;8.98;;;;;;;;;;5074256;28;20199;-54
2020/12/02 14:33:10;;;;;;;10.80;8.80;;;;;;;;;;5067596;28;20240;-58
2020/12/02 14:35:38;;;;;;;10.23;7.78;;;;;;;;;;5074988;28;20212;-59
2020/12/02 14:38:07;;;;;;;12.30;8.95;;;;;;;;;;5074003;28;20283;-58
2020/12/02 14:40:58;;;;;;;13.75;10.02;;;;;;;;;;5068420;28;20204;-56
2020/12/02 14:43:38;;;;;;;15.90;9.50;;;;;;;;;;5075608;28;20556;-57
2020/12/02 14:46:07;;;;;;;12.85;8.57;;;;;;;;;;5065062;28;20229;-56
2020/12/02 14:48:43;;;;;;;17.05;12.75;;;;;;;;;;5077707;28;20269;-56
2020/12/02 14:51:13;;;;;;;15.07;9.13;;;;;;;;;;5067771;28;20194;-55
2020/12/02 14:53:40;;;;;;;14.48;9.07;;;;;;;;;;5075273;28;20273;-54
2020/12/02 14:56:30;;;;;;;14.95;10.07;;;;;;;;;;5071762;28;20195;-54
2020/12/02 14:59:24;;;;;;;11.40;9.57;;;;;;;;;;5037819;28;20296;-59
2020/12/02 15:01:51;;;;;;;13.55;9.43;;;;;;;;;;5075251;28;20191;-57
2020/12/02 15:04:49;;;;;;;13.27;10.30;;;;;;;;;;5075860;28;20229;-59
2020/12/02 15:07:23;;;;;;;12.27;9.82;;;;;;;;;;5055577;28;20203;-55
2020/12/02 15:10:10;;;;;;;13.32;9.15;;;;;;;;;;5073750;28;20190;-57
2020/12/02 15:12:50;;;;;;;13.77;8.85;;;;;;;;;;5075389;28;20600;-60
2020/12/02 15:15:25;;;;;;;10.63;7.20;;;;;;;;;;5075996;28;20196;-54
2020/12/02 15:18:03;;;;;;;14.48;9.32;;;;;;;;;;5075327;28;20197;-56
2020/12/02 15:20:35;;;;;;;14.27;8.48;;;;;;;;;;5060743;28;20194;-54
2020/12/02 15:23:06;;;;;;;14.40;8.60;;;;;;;;;;5074660;28;20207;-55
2020/12/02 15:25:34;;;;;;;11.73;7.85;;;;;;;;;;5074853;28;20197;-56
2020/12/02 15:28:04;;;;;;;13.10;8.40;;;;;;;;;;5058162;28;20220;-56
2020/12/02 15:36:22;;;;;;;15.82;8.90;;;;;;;;;;5053022;28;20253;-58
2020/12/02 15:38:57;;;;;;;12.93;8.68;;;;;;;;;;5054910;28;20211;-55
2020/12/02 15:41:30;;;;;;;15.05;8.73;;;;;;;;;;5054211;28;20223;-52